createdAt,value
2023-04-03T00:00:43.698Z,2.17
2023-04-03T00:03:10.014Z,2.19
2023-04-03T00:05:36.316Z,2.42
2023-04-03T00:08:02.644Z,2.48
2023-04-03T00:10:28.945Z,2.36
2023-04-03T00:12:55.241Z,2.31
2023-04-03T00:15:21.573Z,2.47
2023-04-03T00:17:47.891Z,2.50
2023-04-03T00:20:14.338Z,2.54
2023-04-03T00:22:40.676Z,2.50
2023-04-03T00:25:06.984Z,2.10
2023-04-03T00:27:33.273Z,1.91
2023-04-03T00:29:59.619Z,1.74
2023-04-03T00:32:25.930Z,1.64
2023-04-03T00:34:52.240Z,1.59
2023-04-03T00:37:18.564Z,1.35
2023-04-03T00:39:44.863Z,1.47
2023-04-03T00:42:11.147Z,1.31
2023-04-03T00:44:37.444Z,1.21
2023-04-03T00:47:03.747Z,1.30
2023-04-03T00:49:30.044Z,1.24
2023-04-03T00:51:56.337Z,1.23
2023-04-03T00:54:22.622Z,1.12
2023-04-03T00:56:48.937Z,1.03
2023-04-03T00:59:15.268Z,0.89
2023-04-03T01:01:41.590Z,1.00
2023-04-03T01:04:07.939Z,0.96
2023-04-03T01:06:34.253Z,0.93
2023-04-03T01:09:00.533Z,1.07
2023-04-03T01:11:26.815Z,1.05
2023-04-03T01:13:53.142Z,1.05
2023-04-03T01:16:19.485Z,0.99
2023-04-03T01:18:45.847Z,1.03
2023-04-03T01:21:12.148Z,1.29
2023-04-03T01:23:38.438Z,1.10
2023-04-03T01:26:04.720Z,1.24
2023-04-03T01:28:31.030Z,1.29
2023-04-03T01:30:57.320Z,1.21
2023-04-03T01:33:23.613Z,1.36
2023-04-03T01:35:50.032Z,1.60
2023-04-03T01:38:16.338Z,2.04
2023-04-03T01:40:42.641Z,1.80
2023-04-03T01:43:08.964Z,1.71
2023-04-03T01:45:35.298Z,1.83
2023-04-03T01:48:01.650Z,1.60
2023-04-03T01:50:27.987Z,1.57
2023-04-03T01:52:54.270Z,1.32
2023-04-03T01:55:20.574Z,1.25
2023-04-03T01:57:46.896Z,1.12
2023-04-03T02:00:13.192Z,1.10
2023-04-03T02:02:39.500Z,1.18
2023-04-03T02:05:05.801Z,1.32
2023-04-03T02:07:32.093Z,1.17
2023-04-03T02:09:58.381Z,1.52
2023-04-03T02:12:24.688Z,1.89
2023-04-03T02:14:50.980Z,1.76
2023-04-03T02:17:17.322Z,1.50
2023-04-03T02:19:43.650Z,1.52
2023-04-03T02:22:09.946Z,1.34
2023-04-03T02:24:36.247Z,1.32
2023-04-03T02:27:02.554Z,1.21
2023-04-03T02:29:28.841Z,1.16
2023-04-03T02:31:55.149Z,1.10
2023-04-03T02:34:21.449Z,0.84
2023-04-03T02:36:47.735Z,0.76
2023-04-03T02:39:14.040Z,0.79
2023-04-03T02:41:43.471Z,0.71
2023-04-03T02:44:09.772Z,0.68
2023-04-03T02:46:36.104Z,0.82
2023-04-03T02:49:02.436Z,0.82
2023-04-03T02:51:28.720Z,0.82
2023-04-03T02:53:55.014Z,0.87
2023-04-03T02:56:21.342Z,1.01
2023-04-03T02:58:47.633Z,0.83
2023-04-03T03:01:13.956Z,0.85
2023-04-03T03:03:40.335Z,0.92
2023-04-03T03:06:06.632Z,1.18
2023-04-03T03:08:33.078Z,1.23
2023-04-03T03:10:59.397Z,1.23
2023-04-03T03:13:25.700Z,1.48
2023-04-03T03:15:52.040Z,1.53
2023-04-03T03:18:18.364Z,1.31
2023-04-03T03:20:44.656Z,1.62
2023-04-03T03:23:11.410Z,1.27
2023-04-03T03:25:38.353Z,1.09
2023-04-03T03:28:04.987Z,1.05
2023-04-03T03:30:31.286Z,1.05
2023-04-03T03:32:57.629Z,0.89
2023-04-03T03:35:23.942Z,0.86
2023-04-03T03:37:50.238Z,0.75
2023-04-03T03:40:16.542Z,0.83
2023-04-03T03:42:44.502Z,0.66
2023-04-03T03:45:10.794Z,0.67
2023-04-03T03:47:37.181Z,0.56
2023-04-03T03:50:03.501Z,0.54
2023-04-03T03:52:29.804Z,0.57
2023-04-03T03:54:56.253Z,0.68
2023-04-03T03:57:22.592Z,0.75
2023-04-03T03:59:48.889Z,0.66
2023-04-03T04:02:15.257Z,0.93
2023-04-03T04:04:41.565Z,1.03
2023-04-03T04:07:07.859Z,1.18
2023-04-03T04:09:34.174Z,2.04
2023-04-03T04:12:00.474Z,1.90
2023-04-03T04:14:26.772Z,1.97
2023-04-03T04:16:53.136Z,1.77
2023-04-03T04:19:19.458Z,2.00
2023-04-03T04:21:45.792Z,1.75
2023-04-03T04:24:12.100Z,1.60
2023-04-03T04:26:38.391Z,1.70
2023-04-03T04:29:04.689Z,1.80
2023-04-03T04:31:31.192Z,1.68
2023-04-03T04:33:57.571Z,1.55
2023-04-03T04:36:23.956Z,1.65
2023-04-03T04:38:50.315Z,1.66
2023-04-03T04:41:16.595Z,1.73
2023-04-03T04:43:42.891Z,2.06
2023-04-03T04:46:09.289Z,1.82
2023-04-03T04:48:35.729Z,1.63
2023-04-03T04:51:02.033Z,2.51
2023-04-03T04:53:28.359Z,2.58
2023-04-03T04:55:54.651Z,2.90
2023-04-03T04:58:20.935Z,3.33
2023-04-03T05:00:47.256Z,3.59
2023-04-03T05:03:13.566Z,4.25
2023-04-03T05:05:40.019Z,4.43
2023-04-03T05:08:06.561Z,4.92
2023-04-03T05:10:32.863Z,5.29
2023-04-03T05:12:59.161Z,4.81
2023-04-03T05:15:25.489Z,5.10
2023-04-03T05:17:51.863Z,5.05
2023-04-03T05:20:18.175Z,4.76
2023-04-03T05:22:44.509Z,4.68
2023-04-03T05:25:10.797Z,4.46
2023-04-03T05:27:37.103Z,4.57
2023-04-03T05:30:03.472Z,4.66
2023-04-03T05:32:29.816Z,4.60
2023-04-03T05:34:56.118Z,4.86
2023-04-03T05:37:22.433Z,4.94
2023-04-03T05:39:49.018Z,5.05
2023-04-03T05:42:15.313Z,4.93
2023-04-03T05:44:41.629Z,5.61
2023-04-03T05:47:07.933Z,5.66
2023-04-03T05:49:34.242Z,5.83
2023-04-03T05:52:00.572Z,5.76
2023-04-03T05:54:26.875Z,5.85
2023-04-03T05:56:53.447Z,6.25
2023-04-03T05:59:19.819Z,6.62
2023-04-03T06:01:46.141Z,6.65
2023-04-03T06:04:12.580Z,6.40
2023-04-03T06:06:39.001Z,6.33
2023-04-03T06:09:05.296Z,6.98
2023-04-03T06:11:31.603Z,6.17
2023-04-03T06:13:57.926Z,6.03
2023-04-03T06:16:24.232Z,5.76
2023-04-03T06:18:50.544Z,5.39
2023-04-03T06:21:16.854Z,5.26
2023-04-03T06:23:43.150Z,5.65
2023-04-03T06:26:09.452Z,5.58
2023-04-03T06:28:35.778Z,6.34
2023-04-03T06:31:02.102Z,6.27
2023-04-03T06:33:28.411Z,6.39
2023-04-03T06:35:54.780Z,6.65
2023-04-03T06:38:21.088Z,6.52
2023-04-03T06:40:47.502Z,6.81
2023-04-03T06:43:13.801Z,7.07
2023-04-03T06:45:40.297Z,7.18
2023-04-03T06:48:06.772Z,7.05
2023-04-03T06:50:33.148Z,7.29
2023-04-03T06:52:59.466Z,7.08
2023-04-03T06:55:25.771Z,7.59
2023-04-03T06:57:52.097Z,7.46
2023-04-03T07:00:18.404Z,7.39
2023-04-03T07:02:44.785Z,7.03
2023-04-03T07:05:11.207Z,7.25
2023-04-03T07:07:37.561Z,7.39
2023-04-03T07:10:03.873Z,7.25
2023-04-03T07:12:30.196Z,7.21
2023-04-03T07:14:56.609Z,7.44
2023-04-03T07:17:22.924Z,7.11
2023-04-03T07:19:49.244Z,7.08
2023-04-03T07:22:15.534Z,6.85
2023-04-03T07:24:41.834Z,8.65
2023-04-03T07:27:08.159Z,8.65
2023-04-03T07:29:34.456Z,7.27
2023-04-03T07:32:00.876Z,7.50
2023-04-03T07:34:27.302Z,7.23
2023-04-03T07:36:53.607Z,7.01
2023-04-03T07:39:19.916Z,7.24
2023-04-03T07:41:46.220Z,7.54
2023-04-03T07:44:12.524Z,7.46
2023-04-03T07:46:38.880Z,7.71
2023-04-03T07:49:05.202Z,7.46
2023-04-03T07:51:31.498Z,7.66
2023-04-03T07:53:57.801Z,7.76
2023-04-03T07:56:24.125Z,8.11
2023-04-03T07:58:50.570Z,7.90
2023-04-03T08:01:16.859Z,7.72
2023-04-03T08:03:43.310Z,8.39
2023-04-03T08:06:15.617Z,8.90
2023-04-03T08:08:42.585Z,9.07
2023-04-03T08:11:08.945Z,8.80
2023-04-03T08:13:35.239Z,9.08
2023-04-03T08:16:01.542Z,8.97
2023-04-03T08:18:27.958Z,9.62
2023-04-03T08:20:54.281Z,9.54
2023-04-03T08:23:20.576Z,9.40
2023-04-03T08:25:46.901Z,8.86
2023-04-03T08:28:13.214Z,8.86
2023-04-03T08:30:39.573Z,8.95
2023-04-03T08:33:05.953Z,8.81
2023-04-03T08:35:32.315Z,9.10
2023-04-03T08:37:58.684Z,8.88
2023-04-03T08:40:25.062Z,9.36
2023-04-03T08:42:51.427Z,9.22
2023-04-03T08:45:17.939Z,9.20
2023-04-03T08:47:44.473Z,9.38
2023-04-03T08:50:11.070Z,9.65
2023-04-03T08:52:37.378Z,9.96
2023-04-03T08:55:03.706Z,9.76
2023-04-03T08:57:30.080Z,10.27
2023-04-03T08:59:56.432Z,10.86
2023-04-03T09:02:22.793Z,10.75
2023-04-03T09:04:49.126Z,11.00
2023-04-03T09:07:15.424Z,11.27
2023-04-03T09:09:41.753Z,11.44
2023-04-03T09:12:08.053Z,11.59
2023-04-03T09:14:34.358Z,11.92
2023-04-03T09:17:00.724Z,11.74
2023-04-03T09:19:27.035Z,11.82
2023-04-03T09:21:53.436Z,11.34
2023-04-03T09:24:19.761Z,11.39
2023-04-03T09:26:46.053Z,12.17
2023-04-03T09:29:12.360Z,11.93
2023-04-03T09:31:40.050Z,11.25
2023-04-03T09:34:07.230Z,11.35
2023-04-03T09:36:33.591Z,10.68
2023-04-03T09:38:59.913Z,10.68
2023-04-03T09:41:26.218Z,10.60
2023-04-03T09:43:52.532Z,10.41
2023-04-03T09:46:20.651Z,10.41
2023-04-03T09:48:48.168Z,10.37
2023-04-03T09:51:16.303Z,10.10
2023-04-03T09:53:42.621Z,9.72
2023-04-03T09:56:08.911Z,9.84
2023-04-03T09:58:46.774Z,9.76
2023-04-03T10:01:15.813Z,9.25
2023-04-03T10:03:42.160Z,9.64
2023-04-03T10:06:11.473Z,9.77
2023-04-03T10:08:37.800Z,9.65
2023-04-03T10:11:04.184Z,9.08
2023-04-03T10:13:32.301Z,9.49
2023-04-03T10:15:58.732Z,9.20
2023-04-03T10:18:25.251Z,8.47
2023-04-03T10:20:51.612Z,8.89
2023-04-03T10:23:17.975Z,8.37
2023-04-03T10:25:44.261Z,8.14
2023-04-03T10:28:10.549Z,8.29
2023-04-03T10:30:37.051Z,7.56
2023-04-03T10:33:03.765Z,7.45
2023-04-03T10:35:30.166Z,7.29
2023-04-03T10:37:56.529Z,7.53
2023-04-03T10:40:22.828Z,7.15
2023-04-03T10:42:49.123Z,7.10
2023-04-03T10:45:15.439Z,7.08
2023-04-03T10:47:41.751Z,7.21
2023-04-03T10:50:08.076Z,7.10
2023-04-03T10:52:34.406Z,6.66
2023-04-03T10:55:00.725Z,6.92
2023-04-03T10:57:27.119Z,7.06
2023-04-03T10:59:53.436Z,7.44
2023-04-03T11:02:19.756Z,7.39
2023-04-03T11:04:46.100Z,7.14
2023-04-03T11:07:12.411Z,7.20
2023-04-03T11:09:38.747Z,6.79
2023-04-03T11:12:05.040Z,6.89
2023-04-03T11:14:31.365Z,6.84
2023-04-03T11:16:57.680Z,6.82
2023-04-03T11:19:24.000Z,7.24
2023-04-03T11:21:50.313Z,6.71
2023-04-03T11:24:16.592Z,6.94
2023-04-03T11:26:42.892Z,6.22
2023-04-03T11:29:09.280Z,5.99
2023-04-03T11:31:35.962Z,6.18
2023-04-03T11:34:02.280Z,5.85
2023-04-03T11:36:33.095Z,6.30
2023-04-03T11:39:02.660Z,6.58
2023-04-03T11:41:29.009Z,6.38
2023-04-03T11:43:55.364Z,6.02
2023-04-03T11:46:21.695Z,5.84
2023-04-03T11:48:48.021Z,6.01
2023-04-03T11:51:14.309Z,6.32
2023-04-03T11:53:40.597Z,5.97
2023-04-03T11:56:06.917Z,5.77
2023-04-03T11:58:33.212Z,4.75
2023-04-03T12:00:59.500Z,5.21
2023-04-03T12:03:25.849Z,5.24
2023-04-03T12:05:52.213Z,5.37
2023-04-03T12:08:18.508Z,5.25
2023-04-03T12:10:44.828Z,5.36
2023-04-03T12:13:11.134Z,5.04
2023-04-03T12:15:37.616Z,5.04
2023-04-03T12:18:04.268Z,4.91
2023-04-03T12:20:30.590Z,5.23
2023-04-03T12:22:56.882Z,5.16
2023-04-03T12:25:23.199Z,5.58
2023-04-03T12:27:49.495Z,5.04
2023-04-03T12:30:15.786Z,4.77
2023-04-03T12:32:42.278Z,5.40
2023-04-03T12:35:08.611Z,5.19
2023-04-03T12:37:34.909Z,4.83
2023-04-03T12:40:01.247Z,4.85
2023-04-03T12:42:27.534Z,4.86
2023-04-03T12:44:53.825Z,4.87
2023-04-03T12:47:20.164Z,4.79
2023-04-03T12:49:46.466Z,5.03
2023-04-03T12:52:12.762Z,5.05
2023-04-03T12:54:39.094Z,4.92
2023-04-03T12:57:05.421Z,4.81
2023-04-03T12:59:31.743Z,4.89
2023-04-03T13:01:58.177Z,4.70
2023-04-03T13:04:24.526Z,4.59
2023-04-03T13:06:50.834Z,4.72
2023-04-03T13:09:17.158Z,4.63
2023-04-03T13:11:43.455Z,4.97
2023-04-03T13:14:09.752Z,4.87
2023-04-03T13:16:36.145Z,4.47
2023-04-03T13:19:02.716Z,4.39
2023-04-03T13:21:29.474Z,4.87
2023-04-03T13:24:07.171Z,4.63
2023-04-03T13:26:40.802Z,4.50
2023-04-03T13:29:08.328Z,4.61
2023-04-03T13:31:35.782Z,4.35
2023-04-03T13:34:02.091Z,4.58
2023-04-03T13:36:28.446Z,4.48
2023-04-03T13:38:54.769Z,4.25
2023-04-03T13:41:21.069Z,4.41
2023-04-03T13:43:47.378Z,4.79
2023-04-03T13:46:13.704Z,4.96
2023-04-03T13:48:40.024Z,4.63
2023-04-03T13:51:06.334Z,4.58
2023-04-03T13:53:32.635Z,4.67
2023-04-03T13:55:58.936Z,4.39
2023-04-03T13:58:25.260Z,4.59
2023-04-03T14:00:51.632Z,4.64
2023-04-03T14:03:17.953Z,4.63
2023-04-03T14:05:44.261Z,4.38
2023-04-03T14:08:10.564Z,4.42
2023-04-03T14:10:36.847Z,4.53
2023-04-03T14:13:03.168Z,4.44
2023-04-03T14:15:29.478Z,4.45
2023-04-03T14:17:55.775Z,4.48
2023-04-03T14:20:22.105Z,4.43
2023-04-03T14:22:48.398Z,4.45
2023-04-03T14:25:14.710Z,4.57
2023-04-03T14:27:41.033Z,4.45
2023-04-03T14:30:07.336Z,4.47
2023-04-03T14:32:33.634Z,4.47
2023-04-03T14:34:59.968Z,4.22
2023-04-03T14:37:26.264Z,4.17
2023-04-03T14:39:52.577Z,4.18
2023-04-03T14:42:18.982Z,3.97
2023-04-03T14:44:45.286Z,4.14
2023-04-03T14:47:14.303Z,4.12
2023-04-03T14:49:46.446Z,4.03
2023-04-03T14:52:12.743Z,3.89
2023-04-03T14:54:39.037Z,3.79
2023-04-03T14:57:05.392Z,4.16
2023-04-03T14:59:31.724Z,3.98
2023-04-03T15:01:58.101Z,4.16
2023-04-03T15:04:24.627Z,3.96
2023-04-03T15:06:51.022Z,4.19
2023-04-03T15:09:17.312Z,3.84
2023-04-03T15:11:43.735Z,3.81
2023-04-03T15:14:10.028Z,3.96
2023-04-03T15:16:36.357Z,4.03
2023-04-03T15:19:02.723Z,4.21
2023-04-03T15:21:29.021Z,4.06
2023-04-03T15:23:55.317Z,3.95
2023-04-03T15:26:21.646Z,4.02
2023-04-03T15:28:47.951Z,3.76
2023-04-03T15:31:14.265Z,3.76
2023-04-03T15:33:40.598Z,3.56
2023-04-03T15:36:07.927Z,3.78
2023-04-03T15:38:43.817Z,3.87
2023-04-03T15:41:10.107Z,3.90
2023-04-03T15:43:36.402Z,3.52
2023-04-03T15:46:02.959Z,3.82
2023-04-03T15:48:29.328Z,3.61
2023-04-03T15:50:57.119Z,3.56
2023-04-03T15:53:24.050Z,3.86
2023-04-03T15:55:50.365Z,3.68
2023-04-03T15:58:16.704Z,3.58
2023-04-03T16:00:43.066Z,3.73
2023-04-03T16:03:09.520Z,3.59
2023-04-03T16:05:35.926Z,3.86
2023-04-03T16:08:02.381Z,3.77
2023-04-03T16:10:28.694Z,3.62
2023-04-03T16:12:54.986Z,4.08
2023-04-03T16:15:21.309Z,4.10
2023-04-03T16:17:47.659Z,3.88
2023-04-03T16:20:13.970Z,3.96
2023-04-03T16:22:40.301Z,3.61
2023-04-03T16:25:07.734Z,3.61
2023-04-03T16:27:34.025Z,3.81
2023-04-03T16:30:00.379Z,3.83
2023-04-03T16:32:26.712Z,3.48
2023-04-03T16:34:53.009Z,3.35
2023-04-03T16:37:19.435Z,3.99
2023-04-03T16:39:45.736Z,3.78
2023-04-03T16:42:12.019Z,3.69
2023-04-03T16:44:38.319Z,3.94
2023-04-03T16:47:04.658Z,3.82
2023-04-03T16:49:31.096Z,3.68
2023-04-03T16:51:57.449Z,3.66
2023-04-03T16:54:23.720Z,3.74
2023-04-03T16:56:50.007Z,3.54
2023-04-03T16:59:16.359Z,3.42
2023-04-03T17:01:42.657Z,3.64
2023-04-03T17:04:09.028Z,3.64
2023-04-03T17:06:35.360Z,3.57
2023-04-03T17:09:01.656Z,3.90
2023-04-03T17:11:27.981Z,3.84
2023-04-03T17:13:54.339Z,3.60
2023-04-03T17:16:20.644Z,3.94
2023-04-03T17:18:46.959Z,4.06
2023-04-03T17:21:13.279Z,4.19
2023-04-03T17:23:39.605Z,4.25
2023-04-03T17:26:05.932Z,4.36
2023-04-03T17:28:32.280Z,4.44
2023-04-03T17:30:58.608Z,4.63
2023-04-03T17:33:24.904Z,4.26
2023-04-03T17:35:51.227Z,4.03
2023-04-03T17:38:17.568Z,4.16
2023-04-03T17:40:44.200Z,4.41
2023-04-03T17:43:11.422Z,4.19
2023-04-03T17:45:37.985Z,4.26
2023-04-03T17:48:04.476Z,4.25
2023-04-03T17:50:30.839Z,4.12
2023-04-03T17:52:57.231Z,4.20
2023-04-03T17:55:23.519Z,4.06
2023-04-03T17:57:49.885Z,4.20
2023-04-03T18:00:16.179Z,4.19
2023-04-03T18:02:42.543Z,4.08
2023-04-03T18:05:08.911Z,4.03
2023-04-03T18:07:35.203Z,3.86
2023-04-03T18:10:01.493Z,3.96
2023-04-03T18:12:27.804Z,4.54
2023-04-03T18:14:54.105Z,4.26
2023-04-03T18:17:20.397Z,4.18
2023-04-03T18:19:46.719Z,4.09
2023-04-03T18:22:13.009Z,4.30
2023-04-03T18:24:39.314Z,4.32
2023-04-03T18:27:05.635Z,4.26
2023-04-03T18:29:31.941Z,4.26
2023-04-03T18:31:58.374Z,4.18
2023-04-03T18:34:27.819Z,4.12
2023-04-03T18:36:54.115Z,4.31
2023-04-03T18:39:20.849Z,4.15
2023-04-03T18:41:47.996Z,4.15
2023-04-03T18:44:14.296Z,4.00
2023-04-03T18:46:40.622Z,3.68
2023-04-03T18:49:06.956Z,3.95
2023-04-03T18:51:33.253Z,3.90
2023-04-03T18:53:59.591Z,3.79
2023-04-03T18:56:25.918Z,3.99
2023-04-03T18:58:52.336Z,3.68
2023-04-03T19:01:18.650Z,4.03
2023-04-03T19:03:45.091Z,4.33
2023-04-03T19:06:11.426Z,4.45
2023-04-03T19:08:37.733Z,4.33
2023-04-03T19:11:04.062Z,4.25
2023-04-03T19:13:30.592Z,4.28
2023-04-03T19:15:56.886Z,4.19
2023-04-03T19:18:23.223Z,4.56
2023-04-03T19:20:49.513Z,4.57
2023-04-03T19:23:16.506Z,4.49
2023-04-03T19:25:43.975Z,4.63
2023-04-03T19:28:10.496Z,4.82
2023-04-03T19:30:36.823Z,4.54
2023-04-03T19:33:03.232Z,4.63
2023-04-03T19:35:29.592Z,4.60
2023-04-03T19:37:56.024Z,4.66
2023-04-03T19:40:22.343Z,4.66
2023-04-03T19:42:48.643Z,4.78
2023-04-03T19:45:14.983Z,4.81
2023-04-03T19:47:41.352Z,4.94
2023-04-03T19:50:07.733Z,4.49
2023-04-03T19:52:34.035Z,4.77
2023-04-03T19:55:00.353Z,4.63
2023-04-03T19:57:26.661Z,4.87
2023-04-03T19:59:52.970Z,4.89
2023-04-03T20:02:19.295Z,4.72
2023-04-03T20:04:45.596Z,5.03
2023-04-03T20:07:11.924Z,4.92
2023-04-03T20:09:38.284Z,4.90
2023-04-03T20:12:04.575Z,4.92
2023-04-03T20:14:30.877Z,5.00
2023-04-03T20:16:57.199Z,4.70
2023-04-03T20:19:23.491Z,4.98
2023-04-03T20:21:49.776Z,5.13
2023-04-03T20:24:17.296Z,5.39
2023-04-03T20:26:44.104Z,5.00
2023-04-03T20:29:10.388Z,5.32
2023-04-03T20:31:36.764Z,4.98
2023-04-03T20:34:03.151Z,5.11
2023-04-03T20:36:29.523Z,5.36
2023-04-03T20:38:55.976Z,5.39
2023-04-03T20:41:22.282Z,5.32
2023-04-03T20:43:48.578Z,5.11
2023-04-03T20:46:14.939Z,5.46
2023-04-03T20:48:41.259Z,5.51
2023-04-03T20:51:07.597Z,5.37
2023-04-03T20:53:33.925Z,5.54
2023-04-03T20:56:00.612Z,5.61
2023-04-03T20:58:27.336Z,5.45
2023-04-03T21:00:53.781Z,5.78
2023-04-03T21:03:20.162Z,5.87
2023-04-03T21:05:46.583Z,5.63
2023-04-03T21:08:12.909Z,5.70
2023-04-03T21:10:39.386Z,5.65
2023-04-03T21:13:05.898Z,5.77
2023-04-03T21:15:32.253Z,5.91
2023-04-03T21:17:58.586Z,6.03
2023-04-03T21:20:24.925Z,6.09
2023-04-03T21:22:51.249Z,5.86
2023-04-03T21:25:17.552Z,5.76
2023-04-03T21:27:43.847Z,5.80
2023-04-03T21:30:10.176Z,5.98
2023-04-03T21:32:36.578Z,6.28
2023-04-03T21:35:02.911Z,6.12
2023-04-03T21:37:29.234Z,6.10
2023-04-03T21:39:55.534Z,5.87
2023-04-03T21:42:21.837Z,6.47
2023-04-03T21:44:48.162Z,6.12
2023-04-03T21:47:14.462Z,5.81
2023-04-03T21:49:40.766Z,6.07
2023-04-03T21:52:07.083Z,6.28
2023-04-03T21:54:33.400Z,6.19
2023-04-03T21:56:59.690Z,5.94
2023-04-03T21:59:26.203Z,5.85
2023-04-03T22:01:52.741Z,5.84
2023-04-03T22:04:19.085Z,6.21
2023-04-03T22:06:45.398Z,6.05
2023-04-03T22:09:11.700Z,5.75
2023-04-03T22:11:38.004Z,5.45
2023-04-03T22:14:04.324Z,5.93
2023-04-03T22:16:30.647Z,5.48
2023-04-03T22:18:56.970Z,5.81
2023-04-03T22:21:23.354Z,5.41
2023-04-03T22:23:49.656Z,5.47
2023-04-03T22:26:15.949Z,5.27
2023-04-03T22:28:42.270Z,5.39
2023-04-03T22:31:08.683Z,5.40
2023-04-03T22:33:35.010Z,5.54
2023-04-03T22:36:01.371Z,5.19
2023-04-03T22:38:27.720Z,5.19
2023-04-03T22:40:54.020Z,4.97
2023-04-03T22:43:20.350Z,5.08
2023-04-03T22:45:46.642Z,4.82
2023-04-03T22:48:12.936Z,4.81
2023-04-03T22:50:39.534Z,4.79
2023-04-03T22:53:06.154Z,4.75
2023-04-03T22:55:32.479Z,4.71
2023-04-03T22:57:58.794Z,4.60
2023-04-03T23:00:25.196Z,4.54
2023-04-03T23:02:51.529Z,4.20
2023-04-03T23:05:17.873Z,4.13
2023-04-03T23:07:44.175Z,4.36
2023-04-03T23:10:10.463Z,4.43
2023-04-03T23:12:36.782Z,4.44
2023-04-03T23:15:03.083Z,4.24
2023-04-03T23:17:29.417Z,3.83
2023-04-03T23:19:55.795Z,3.92
2023-04-03T23:22:22.097Z,3.84
2023-04-03T23:24:48.399Z,3.68
2023-04-03T23:27:14.843Z,3.78
2023-04-03T23:29:41.152Z,3.92
2023-04-03T23:32:07.465Z,3.68
2023-04-03T23:34:33.811Z,3.33
2023-04-03T23:37:00.113Z,3.75
2023-04-03T23:39:26.417Z,3.59
2023-04-03T23:41:52.745Z,3.28
2023-04-03T23:44:19.043Z,3.47
2023-04-03T23:46:45.378Z,3.32
2023-04-03T23:49:11.703Z,3.31
2023-04-03T23:51:37.993Z,3.36
2023-04-03T23:54:04.335Z,3.27
2023-04-03T23:56:30.671Z,3.34
2023-04-03T23:58:56.982Z,3.27
